sensor_id;sensor_type;location;lat;lon;timestamp;temperature;humidity
25582;DHT22;13462;50.764;4.332;2022-07-25T00:00:00;24.20;91.30
25582;DHT22;13462;50.764;4.332;2022-07-25T00:02:26;24.20;91.40
25582;DHT22;13462;50.764;4.332;2022-07-25T00:04:52;24.10;91.60
25582;DHT22;13462;50.764;4.332;2022-07-25T00:07:17;24.10;91.50
25582;DHT22;13462;50.764;4.332;2022-07-25T00:09:43;24.10;91.60
25582;DHT22;13462;50.764;4.332;2022-07-25T00:12:09;24.00;91.60
25582;DHT22;13462;50.764;4.332;2022-07-25T00:14:35;24.10;92.10
25582;DHT22;13462;50.764;4.332;2022-07-25T00:17:00;24.00;91.80
25582;DHT22;13462;50.764;4.332;2022-07-25T00:19:26;24.00;92.10
25582;DHT22;13462;50.764;4.332;2022-07-25T00:21:51;23.90;92.20
25582;DHT22;13462;50.764;4.332;2022-07-25T00:24:17;23.90;92.20
25582;DHT22;13462;50.764;4.332;2022-07-25T00:26:42;23.90;92.30
25582;DHT22;13462;50.764;4.332;2022-07-25T00:29:08;23.80;92.40
25582;DHT22;13462;50.764;4.332;2022-07-25T00:31:34;23.80;92.50
25582;DHT22;13462;50.764;4.332;2022-07-25T00:34:00;23.80;92.60
25582;DHT22;13462;50.764;4.332;2022-07-25T00:36:25;23.70;92.80
25582;DHT22;13462;50.764;4.332;2022-07-25T00:38:51;23.70;92.90
25582;DHT22;13462;50.764;4.332;2022-07-25T00:41:17;23.70;93.10
25582;DHT22;13462;50.764;4.332;2022-07-25T00:43:44;23.60;93.10
25582;DHT22;13462;50.764;4.332;2022-07-25T00:46:13;23.60;93.30
25582;DHT22;13462;50.764;4.332;2022-07-25T00:48:39;23.60;93.50
25582;DHT22;13462;50.764;4.332;2022-07-25T00:51:06;23.60;93.50
25582;DHT22;13462;50.764;4.332;2022-07-25T00:53:32;23.50;93.60
25582;DHT22;13462;50.764;4.332;2022-07-25T00:55:58;23.50;93.80
25582;DHT22;13462;50.764;4.332;2022-07-25T00:58:23;23.50;93.80
25582;DHT22;13462;50.764;4.332;2022-07-25T01:00:49;23.50;94.00
25582;DHT22;13462;50.764;4.332;2022-07-25T01:03:15;23.50;94.10
25582;DHT22;13462;50.764;4.332;2022-07-25T01:05:41;23.50;94.10
25582;DHT22;13462;50.764;4.332;2022-07-25T01:08:08;23.50;94.00
25582;DHT22;13462;50.764;4.332;2022-07-25T01:10:34;23.50;94.10
25582;DHT22;13462;50.764;4.332;2022-07-25T01:13:00;23.50;94.20
25582;DHT22;13462;50.764;4.332;2022-07-25T01:15:26;23.50;94.20
25582;DHT22;13462;50.764;4.332;2022-07-25T01:17:52;23.40;94.30
25582;DHT22;13462;50.764;4.332;2022-07-25T01:20:18;23.40;94.30
25582;DHT22;13462;50.764;4.332;2022-07-25T01:22:45;23.40;94.30
25582;DHT22;13462;50.764;4.332;2022-07-25T01:25:13;23.40;94.40
25582;DHT22;13462;50.764;4.332;2022-07-25T01:27:39;23.40;94.60
25582;DHT22;13462;50.764;4.332;2022-07-25T01:30:06;23.40;94.70
25582;DHT22;13462;50.764;4.332;2022-07-25T01:32:34;23.30;95.00
25582;DHT22;13462;50.764;4.332;2022-07-25T01:35:00;23.30;95.10
25582;DHT22;13462;50.764;4.332;2022-07-25T01:37:26;23.20;95.10
25582;DHT22;13462;50.764;4.332;2022-07-25T01:39:52;23.30;95.20
25582;DHT22;13462;50.764;4.332;2022-07-25T01:42:17;23.30;95.20
25582;DHT22;13462;50.764;4.332;2022-07-25T01:44:43;23.30;95.20
25582;DHT22;13462;50.764;4.332;2022-07-25T01:47:09;23.30;95.20
25582;DHT22;13462;50.764;4.332;2022-07-25T01:49:34;23.20;95.30
25582;DHT22;13462;50.764;4.332;2022-07-25T01:52:00;23.20;95.50
25582;DHT22;13462;50.764;4.332;2022-07-25T01:54:25;23.20;95.60
25582;DHT22;13462;50.764;4.332;2022-07-25T01:56:51;23.10;96.00
25582;DHT22;13462;50.764;4.332;2022-07-25T01:59:17;23.00;96.80
25582;DHT22;13462;50.764;4.332;2022-07-25T02:01:43;23.00;96.90
25582;DHT22;13462;50.764;4.332;2022-07-25T02:04:08;22.80;97.60
25582;DHT22;13462;50.764;4.332;2022-07-25T02:06:34;22.70;98.10
25582;DHT22;13462;50.764;4.332;2022-07-25T02:09:01;22.70;97.90
25582;DHT22;13462;50.764;4.332;2022-07-25T02:11:26;22.70;98.10
25582;DHT22;13462;50.764;4.332;2022-07-25T02:13:52;22.60;98.60
25582;DHT22;13462;50.764;4.332;2022-07-25T02:16:18;22.70;98.80
25582;DHT22;13462;50.764;4.332;2022-07-25T02:18:43;22.60;99.00
25582;DHT22;13462;50.764;4.332;2022-07-25T02:21:10;22.50;99.50
25582;DHT22;13462;50.764;4.332;2022-07-25T02:23:36;22.30;99.90
25582;DHT22;13462;50.764;4.332;2022-07-25T02:26:02;22.30;99.90
25582;DHT22;13462;50.764;4.332;2022-07-25T02:28:28;22.50;99.90
25582;DHT22;13462;50.764;4.332;2022-07-25T02:30:54;22.40;99.90
25582;DHT22;13462;50.764;4.332;2022-07-25T02:33:19;22.30;99.90
25582;DHT22;13462;50.764;4.332;2022-07-25T02:35:45;22.20;99.90
25582;DHT22;13462;50.764;4.332;2022-07-25T02:38:11;22.20;99.90
25582;DHT22;13462;50.764;4.332;2022-07-25T02:40:47;22.10;99.90
25582;DHT22;13462;50.764;4.332;2022-07-25T02:43:13;22.10;99.90
25582;DHT22;13462;50.764;4.332;2022-07-25T02:45:39;22.10;99.90
25582;DHT22;13462;50.764;4.332;2022-07-25T02:48:04;22.00;99.90
25582;DHT22;13462;50.764;4.332;2022-07-25T02:50:30;22.20;99.90
25582;DHT22;13462;50.764;4.332;2022-07-25T02:52:56;22.10;99.90
25582;DHT22;13462;50.764;4.332;2022-07-25T02:55:21;22.20;99.90
25582;DHT22;13462;50.764;4.332;2022-07-25T02:57:47;22.10;99.90
25582;DHT22;13462;50.764;4.332;2022-07-25T03:00:13;22.10;99.90
25582;DHT22;13462;50.764;4.332;2022-07-25T03:02:39;22.10;99.90
25582;DHT22;13462;50.764;4.332;2022-07-25T03:05:07;22.10;99.90
25582;DHT22;13462;50.764;4.332;2022-07-25T03:07:34;22.00;99.90
25582;DHT22;13462;50.764;4.332;2022-07-25T03:09:59;22.10;99.90
25582;DHT22;13462;50.764;4.332;2022-07-25T03:12:25;22.00;99.90
25582;DHT22;13462;50.764;4.332;2022-07-25T03:14:51;22.00;99.90
25582;DHT22;13462;50.764;4.332;2022-07-25T03:17:17;22.10;99.90
25582;DHT22;13462;50.764;4.332;2022-07-25T03:19:42;22.20;99.90
25582;DHT22;13462;50.764;4.332;2022-07-25T03:22:08;22.20;99.90
25582;DHT22;13462;50.764;4.332;2022-07-25T03:24:34;22.30;99.90
25582;DHT22;13462;50.764;4.332;2022-07-25T03:26:59;22.20;99.90
25582;DHT22;13462;50.764;4.332;2022-07-25T03:29:25;22.10;99.90
25582;DHT22;13462;50.764;4.332;2022-07-25T03:31:51;22.10;99.90
25582;DHT22;13462;50.764;4.332;2022-07-25T03:34:16;22.10;99.90
25582;DHT22;13462;50.764;4.332;2022-07-25T03:36:42;22.10;99.90
25582;DHT22;13462;50.764;4.332;2022-07-25T03:39:07;22.20;99.90
25582;DHT22;13462;50.764;4.332;2022-07-25T03:41:33;22.20;99.90
25582;DHT22;13462;50.764;4.332;2022-07-25T03:43:59;22.20;99.90
25582;DHT22;13462;50.764;4.332;2022-07-25T03:46:24;22.20;99.90
25582;DHT22;13462;50.764;4.332;2022-07-25T03:48:50;22.30;99.90
25582;DHT22;13462;50.764;4.332;2022-07-25T03:51:15;22.30;99.90
25582;DHT22;13462;50.764;4.332;2022-07-25T03:53:41;22.30;99.90
25582;DHT22;13462;50.764;4.332;2022-07-25T03:56:25;22.40;99.90
25582;DHT22;13462;50.764;4.332;2022-07-25T03:58:50;22.40;99.90
25582;DHT22;13462;50.764;4.332;2022-07-25T04:01:16;22.40;99.90
25582;DHT22;13462;50.764;4.332;2022-07-25T04:03:42;22.30;99.90
25582;DHT22;13462;50.764;4.332;2022-07-25T04:06:07;22.30;99.90
25582;DHT22;13462;50.764;4.332;2022-07-25T04:08:33;22.20;99.90
25582;DHT22;13462;50.764;4.332;2022-07-25T04:10:58;22.10;99.90
25582;DHT22;13462;50.764;4.332;2022-07-25T04:13:24;22.10;99.90
25582;DHT22;13462;50.764;4.332;2022-07-25T04:15:50;22.10;99.90
25582;DHT22;13462;50.764;4.332;2022-07-25T04:18:16;22.00;99.90
25582;DHT22;13462;50.764;4.332;2022-07-25T04:20:41;21.90;99.90
25582;DHT22;13462;50.764;4.332;2022-07-25T04:23:07;21.70;99.90
25582;DHT22;13462;50.764;4.332;2022-07-25T04:25:33;21.80;99.90
25582;DHT22;13462;50.764;4.332;2022-07-25T04:27:58;21.80;99.90
25582;DHT22;13462;50.764;4.332;2022-07-25T04:30:24;21.80;99.90
25582;DHT22;13462;50.764;4.332;2022-07-25T04:32:49;21.90;99.90
25582;DHT22;13462;50.764;4.332;2022-07-25T04:35:15;21.80;99.90
25582;DHT22;13462;50.764;4.332;2022-07-25T04:37:40;21.80;99.90
25582;DHT22;13462;50.764;4.332;2022-07-25T04:40:06;21.70;99.90
25582;DHT22;13462;50.764;4.332;2022-07-25T04:42:33;21.60;99.90
25582;DHT22;13462;50.764;4.332;2022-07-25T04:44:58;21.60;99.90
25582;DHT22;13462;50.764;4.332;2022-07-25T04:47:24;21.50;99.90
25582;DHT22;13462;50.764;4.332;2022-07-25T04:49:50;21.60;99.90
25582;DHT22;13462;50.764;4.332;2022-07-25T04:52:15;21.60;99.90
25582;DHT22;13462;50.764;4.332;2022-07-25T04:54:41;21.60;99.90
25582;DHT22;13462;50.764;4.332;2022-07-25T04:57:06;21.70;99.90
25582;DHT22;13462;50.764;4.332;2022-07-25T04:59:32;21.80;99.90
25582;DHT22;13462;50.764;4.332;2022-07-25T05:01:58;21.70;99.90
25582;DHT22;13462;50.764;4.332;2022-07-25T05:04:23;21.60;99.90
25582;DHT22;13462;50.764;4.332;2022-07-25T05:06:49;21.60;99.90
25582;DHT22;13462;50.764;4.332;2022-07-25T05:09:14;21.70;99.90
25582;DHT22;13462;50.764;4.332;2022-07-25T05:11:40;21.70;99.90
25582;DHT22;13462;50.764;4.332;2022-07-25T05:14:05;21.70;99.90
25582;DHT22;13462;50.764;4.332;2022-07-25T05:16:31;21.70;99.90
25582;DHT22;13462;50.764;4.332;2022-07-25T05:18:57;21.70;99.90
25582;DHT22;13462;50.764;4.332;2022-07-25T05:21:22;21.80;99.90
25582;DHT22;13462;50.764;4.332;2022-07-25T05:23:48;21.80;99.90
25582;DHT22;13462;50.764;4.332;2022-07-25T05:26:13;21.80;99.90
25582;DHT22;13462;50.764;4.332;2022-07-25T05:28:39;21.90;99.90
25582;DHT22;13462;50.764;4.332;2022-07-25T05:31:05;21.80;99.90
25582;DHT22;13462;50.764;4.332;2022-07-25T05:33:30;21.70;99.90
25582;DHT22;13462;50.764;4.332;2022-07-25T05:35:56;21.80;99.90
25582;DHT22;13462;50.764;4.332;2022-07-25T05:38:21;21.90;99.90
25582;DHT22;13462;50.764;4.332;2022-07-25T05:40:47;21.90;99.90
25582;DHT22;13462;50.764;4.332;2022-07-25T05:43:13;21.70;99.90
25582;DHT22;13462;50.764;4.332;2022-07-25T05:45:39;21.80;99.90
25582;DHT22;13462;50.764;4.332;2022-07-25T05:48:04;21.80;99.90
25582;DHT22;13462;50.764;4.332;2022-07-25T05:50:30;21.80;99.90
25582;DHT22;13462;50.764;4.332;2022-07-25T05:52:56;21.80;99.90
25582;DHT22;13462;50.764;4.332;2022-07-25T05:55:22;21.80;99.90
25582;DHT22;13462;50.764;4.332;2022-07-25T05:57:47;21.80;99.90
25582;DHT22;13462;50.764;4.332;2022-07-25T06:00:13;21.90;99.90
25582;DHT22;13462;50.764;4.332;2022-07-25T06:02:39;21.70;99.90
25582;DHT22;13462;50.764;4.332;2022-07-25T06:05:04;21.70;99.90
25582;DHT22;13462;50.764;4.332;2022-07-25T06:07:30;21.60;99.90
25582;DHT22;13462;50.764;4.332;2022-07-25T06:09:56;21.70;99.90
25582;DHT22;13462;50.764;4.332;2022-07-25T06:12:21;21.70;99.90
25582;DHT22;13462;50.764;4.332;2022-07-25T06:14:47;22.00;99.90
25582;DHT22;13462;50.764;4.332;2022-07-25T06:17:13;22.10;99.90
25582;DHT22;13462;50.764;4.332;2022-07-25T06:19:38;22.10;99.90
25582;DHT22;13462;50.764;4.332;2022-07-25T06:22:04;22.60;99.90
25582;DHT22;13462;50.764;4.332;2022-07-25T06:24:29;22.80;99.90
25582;DHT22;13462;50.764;4.332;2022-07-25T06:26:55;22.60;99.90
25582;DHT22;13462;50.764;4.332;2022-07-25T06:29:21;22.50;99.90
25582;DHT22;13462;50.764;4.332;2022-07-25T06:31:46;22.40;99.90
25582;DHT22;13462;50.764;4.332;2022-07-25T06:34:12;22.20;99.90
25582;DHT22;13462;50.764;4.332;2022-07-25T06:36:37;22.20;99.90
25582;DHT22;13462;50.764;4.332;2022-07-25T06:39:03;22.30;99.90
25582;DHT22;13462;50.764;4.332;2022-07-25T06:41:28;23.00;99.90
25582;DHT22;13462;50.764;4.332;2022-07-25T06:43:54;23.70;99.90
25582;DHT22;13462;50.764;4.332;2022-07-25T06:46:20;23.70;99.90
25582;DHT22;13462;50.764;4.332;2022-07-25T06:48:45;23.70;99.90
25582;DHT22;13462;50.764;4.332;2022-07-25T06:51:11;23.50;99.90
25582;DHT22;13462;50.764;4.332;2022-07-25T06:53:37;23.40;99.90
25582;DHT22;13462;50.764;4.332;2022-07-25T06:56:02;23.80;99.90
25582;DHT22;13462;50.764;4.332;2022-07-25T06:58:28;25.30;99.90
25582;DHT22;13462;50.764;4.332;2022-07-25T07:00:54;27.10;97.30
25582;DHT22;13462;50.764;4.332;2022-07-25T07:03:19;28.00;94.10
25582;DHT22;13462;50.764;4.332;2022-07-25T07:05:45;28.00;92.10
25582;DHT22;13462;50.764;4.332;2022-07-25T07:08:11;26.90;93.50
25582;DHT22;13462;50.764;4.332;2022-07-25T07:10:36;26.80;94.10
25582;DHT22;13462;50.764;4.332;2022-07-25T07:13:11;26.60;93.50
25582;DHT22;13462;50.764;4.332;2022-07-25T07:15:38;25.80;95.00
25582;DHT22;13462;50.764;4.332;2022-07-25T07:18:07;25.80;95.50
25582;DHT22;13462;50.764;4.332;2022-07-25T07:20:34;25.90;96.10
25582;DHT22;13462;50.764;4.332;2022-07-25T07:22:59;26.20;95.40
25582;DHT22;13462;50.764;4.332;2022-07-25T07:25:25;26.30;96.00
25582;DHT22;13462;50.764;4.332;2022-07-25T07:27:51;25.90;95.30
25582;DHT22;13462;50.764;4.332;2022-07-25T07:30:17;25.40;97.00
25582;DHT22;13462;50.764;4.332;2022-07-25T07:32:43;24.90;98.30
25582;DHT22;13462;50.764;4.332;2022-07-25T07:35:10;25.20;98.70
25582;DHT22;13462;50.764;4.332;2022-07-25T07:37:36;25.50;98.10
25582;DHT22;13462;50.764;4.332;2022-07-25T07:40:03;26.10;97.40
25582;DHT22;13462;50.764;4.332;2022-07-25T07:42:44;27.80;95.40
25582;DHT22;13462;50.764;4.332;2022-07-25T07:45:16;29.70;91.80
25582;DHT22;13462;50.764;4.332;2022-07-25T07:47:42;30.30;88.70
25582;DHT22;13462;50.764;4.332;2022-07-25T07:50:09;29.80;87.00
25582;DHT22;13462;50.764;4.332;2022-07-25T07:52:35;29.40;88.10
25582;DHT22;13462;50.764;4.332;2022-07-25T07:55:01;28.20;90.80
25582;DHT22;13462;50.764;4.332;2022-07-25T07:57:46;27.50;92.50
25582;DHT22;13462;50.764;4.332;2022-07-25T08:00:12;28.70;91.60
25582;DHT22;13462;50.764;4.332;2022-07-25T08:02:46;29.70;90.10
25582;DHT22;13462;50.764;4.332;2022-07-25T08:05:19;30.50;87.10
25582;DHT22;13462;50.764;4.332;2022-07-25T08:07:46;31.20;83.40
25582;DHT22;13462;50.764;4.332;2022-07-25T08:10:11;31.60;82.00
25582;DHT22;13462;50.764;4.332;2022-07-25T08:12:40;31.40;83.20
25582;DHT22;13462;50.764;4.332;2022-07-25T08:15:07;31.90;80.20
25582;DHT22;13462;50.764;4.332;2022-07-25T08:17:33;32.00;80.90
25582;DHT22;13462;50.764;4.332;2022-07-25T08:19:58;31.80;80.70
25582;DHT22;13462;50.764;4.332;2022-07-25T08:22:24;31.40;80.40
25582;DHT22;13462;50.764;4.332;2022-07-25T08:24:59;30.40;82.60
25582;DHT22;13462;50.764;4.332;2022-07-25T08:27:25;30.00;85.30
25582;DHT22;13462;50.764;4.332;2022-07-25T08:29:50;29.00;88.00
25582;DHT22;13462;50.764;4.332;2022-07-25T08:32:16;28.50;89.70
25582;DHT22;13462;50.764;4.332;2022-07-25T08:34:42;28.40;90.60
25582;DHT22;13462;50.764;4.332;2022-07-25T08:37:07;28.00;90.60
25582;DHT22;13462;50.764;4.332;2022-07-25T08:39:33;27.60;91.80
25582;DHT22;13462;50.764;4.332;2022-07-25T08:41:59;27.20;92.80
25582;DHT22;13462;50.764;4.332;2022-07-25T08:44:27;27.40;93.10
25582;DHT22;13462;50.764;4.332;2022-07-25T08:46:56;27.70;92.70
25582;DHT22;13462;50.764;4.332;2022-07-25T08:49:22;29.10;91.30
25582;DHT22;13462;50.764;4.332;2022-07-25T08:51:48;30.20;87.20
25582;DHT22;13462;50.764;4.332;2022-07-25T08:54:15;30.90;86.10
25582;DHT22;13462;50.764;4.332;2022-07-25T08:56:41;31.10;83.90
25582;DHT22;13462;50.764;4.332;2022-07-25T08:59:06;31.10;83.20
25582;DHT22;13462;50.764;4.332;2022-07-25T09:01:34;31.70;83.70
25582;DHT22;13462;50.764;4.332;2022-07-25T09:03:59;30.80;84.20
25582;DHT22;13462;50.764;4.332;2022-07-25T09:06:26;30.70;83.40
25582;DHT22;13462;50.764;4.332;2022-07-25T09:08:57;30.20;84.60
25582;DHT22;13462;50.764;4.332;2022-07-25T09:11:31;30.90;83.50
25582;DHT22;13462;50.764;4.332;2022-07-25T09:14:17;30.80;81.90
25582;DHT22;13462;50.764;4.332;2022-07-25T09:16:43;30.60;84.20
25582;DHT22;13462;50.764;4.332;2022-07-25T09:19:15;30.40;84.40
25582;DHT22;13462;50.764;4.332;2022-07-25T09:21:43;31.10;81.80
25582;DHT22;13462;50.764;4.332;2022-07-25T09:24:14;31.10;82.30
25582;DHT22;13462;50.764;4.332;2022-07-25T09:26:47;30.20;84.20
25582;DHT22;13462;50.764;4.332;2022-07-25T09:29:25;29.40;87.00
25582;DHT22;13462;50.764;4.332;2022-07-25T09:31:53;29.40;87.20
25582;DHT22;13462;50.764;4.332;2022-07-25T09:34:39;28.90;87.10
25582;DHT22;13462;50.764;4.332;2022-07-25T09:37:09;28.20;88.60
25582;DHT22;13462;50.764;4.332;2022-07-25T09:44:42;27.40;90.50
25582;DHT22;13462;50.764;4.332;2022-07-25T09:47:13;26.80;91.50
25582;DHT22;13462;50.764;4.332;2022-07-25T09:49:43;26.40;92.80
25582;DHT22;13462;50.764;4.332;2022-07-25T09:52:12;27.10;92.10
25582;DHT22;13462;50.764;4.332;2022-07-25T09:54:38;28.00;91.00
25582;DHT22;13462;50.764;4.332;2022-07-25T09:57:04;29.00;88.60
25582;DHT22;13462;50.764;4.332;2022-07-25T09:59:32;29.20;85.80
25582;DHT22;13462;50.764;4.332;2022-07-25T10:07:42;29.20;85.70
25582;DHT22;13462;50.764;4.332;2022-07-25T10:10:26;29.10;85.70
25582;DHT22;13462;50.764;4.332;2022-07-25T10:13:11;28.70;86.20
25582;DHT22;13462;50.764;4.332;2022-07-25T10:15:48;28.70;87.90
25582;DHT22;13462;50.764;4.332;2022-07-25T10:18:16;28.80;87.40
25582;DHT22;13462;50.764;4.332;2022-07-25T10:20:43;28.40;87.20
25582;DHT22;13462;50.764;4.332;2022-07-25T10:23:23;28.00;87.20
25582;DHT22;13462;50.764;4.332;2022-07-25T10:28:47;26.70;90.10
25582;DHT22;13462;50.764;4.332;2022-07-25T10:31:19;26.60;91.20
25582;DHT22;13462;50.764;4.332;2022-07-25T10:33:56;26.60;90.90
25582;DHT22;13462;50.764;4.332;2022-07-25T10:36:25;27.30;90.00
25582;DHT22;13462;50.764;4.332;2022-07-25T10:38:56;27.50;89.30
25582;DHT22;13462;50.764;4.332;2022-07-25T10:41:23;27.00;89.70
25582;DHT22;13462;50.764;4.332;2022-07-25T10:43:50;27.00;90.10
25582;DHT22;13462;50.764;4.332;2022-07-25T10:46:20;27.00;89.80
25582;DHT22;13462;50.764;4.332;2022-07-25T10:48:57;26.40;90.80
25582;DHT22;13462;50.764;4.332;2022-07-25T10:51:28;26.00;91.20
25582;DHT22;13462;50.764;4.332;2022-07-25T10:53:55;25.80;91.60
25582;DHT22;13462;50.764;4.332;2022-07-25T10:56:26;25.50;92.00
25582;DHT22;13462;50.764;4.332;2022-07-25T11:01:29;25.20;92.30
25582;DHT22;13462;50.764;4.332;2022-07-25T11:04:02;24.80;93.10
25582;DHT22;13462;50.764;4.332;2022-07-25T11:06:36;24.80;93.90
25582;DHT22;13462;50.764;4.332;2022-07-25T11:09:15;24.40;93.80
25582;DHT22;13462;50.764;4.332;2022-07-25T11:11:43;24.20;95.20
25582;DHT22;13462;50.764;4.332;2022-07-25T11:14:24;24.20;95.00
25582;DHT22;13462;50.764;4.332;2022-07-25T11:16:52;23.90;95.10
25582;DHT22;13462;50.764;4.332;2022-07-25T11:19:26;23.60;95.10
25582;DHT22;13462;50.764;4.332;2022-07-25T11:21:59;23.50;95.60
25582;DHT22;13462;50.764;4.332;2022-07-25T11:27:05;23.30;96.70
25582;DHT22;13462;50.764;4.332;2022-07-25T11:29:32;23.30;97.00
25582;DHT22;13462;50.764;4.332;2022-07-25T11:32:04;23.30;97.20
25582;DHT22;13462;50.764;4.332;2022-07-25T11:34:33;23.10;97.30
25582;DHT22;13462;50.764;4.332;2022-07-25T11:37:01;23.00;97.90
25582;DHT22;13462;50.764;4.332;2022-07-25T11:39:29;22.60;99.10
25582;DHT22;13462;50.764;4.332;2022-07-25T11:42:07;22.50;99.90
25582;DHT22;13462;50.764;4.332;2022-07-25T11:44:38;22.50;99.90
25582;DHT22;13462;50.764;4.332;2022-07-25T11:47:08;22.30;99.90
25582;DHT22;13462;50.764;4.332;2022-07-25T11:49:44;22.40;99.90
25582;DHT22;13462;50.764;4.332;2022-07-25T11:52:22;22.50;99.90
25582;DHT22;13462;50.764;4.332;2022-07-25T11:57:29;22.50;99.90
25582;DHT22;13462;50.764;4.332;2022-07-25T11:59:55;22.80;99.90
25582;DHT22;13462;50.764;4.332;2022-07-25T12:02:32;23.30;99.90
25582;DHT22;13462;50.764;4.332;2022-07-25T12:05:03;23.90;99.90
25582;DHT22;13462;50.764;4.332;2022-07-25T12:07:44;24.70;99.50
25582;DHT22;13462;50.764;4.332;2022-07-25T12:10:16;25.70;96.00
25582;DHT22;13462;50.764;4.332;2022-07-25T12:13:05;26.10;95.20
25582;DHT22;13462;50.764;4.332;2022-07-25T12:15:39;26.50;93.90
25582;DHT22;13462;50.764;4.332;2022-07-25T12:18:06;26.60;93.80
25582;DHT22;13462;50.764;4.332;2022-07-25T12:20:37;27.30;91.50
25582;DHT22;13462;50.764;4.332;2022-07-25T12:23:05;26.70;92.70
25582;DHT22;13462;50.764;4.332;2022-07-25T12:25:31;26.60;92.30
25582;DHT22;13462;50.764;4.332;2022-07-25T12:27:58;26.90;92.90
25582;DHT22;13462;50.764;4.332;2022-07-25T12:30:28;26.40;92.70
25582;DHT22;13462;50.764;4.332;2022-07-25T12:32:55;25.90;93.50
25582;DHT22;13462;50.764;4.332;2022-07-25T12:35:21;25.20;94.90
25582;DHT22;13462;50.764;4.332;2022-07-25T12:37:47;24.50;95.30
25582;DHT22;13462;50.764;4.332;2022-07-25T12:40:14;23.90;96.60
25582;DHT22;13462;50.764;4.332;2022-07-25T12:42:41;23.60;98.10
25582;DHT22;13462;50.764;4.332;2022-07-25T12:45:07;23.60;98.10
25582;DHT22;13462;50.764;4.332;2022-07-25T12:47:33;24.00;98.10
25582;DHT22;13462;50.764;4.332;2022-07-25T12:49:59;24.60;97.50
25582;DHT22;13462;50.764;4.332;2022-07-25T12:52:25;24.90;95.70
25582;DHT22;13462;50.764;4.332;2022-07-25T12:54:51;24.80;95.30
25582;DHT22;13462;50.764;4.332;2022-07-25T12:57:17;24.80;96.60
25582;DHT22;13462;50.764;4.332;2022-07-25T12:59:45;26.00;94.30
25582;DHT22;13462;50.764;4.332;2022-07-25T13:02:11;26.80;92.40
25582;DHT22;13462;50.764;4.332;2022-07-25T13:04:36;27.70;90.30
25582;DHT22;13462;50.764;4.332;2022-07-25T13:07:02;27.90;87.00
25582;DHT22;13462;50.764;4.332;2022-07-25T13:09:28;27.60;88.00
25582;DHT22;13462;50.764;4.332;2022-07-25T13:11:54;26.90;89.80
25582;DHT22;13462;50.764;4.332;2022-07-25T13:14:20;26.60;88.60
25582;DHT22;13462;50.764;4.332;2022-07-25T13:16:47;26.30;90.10
25582;DHT22;13462;50.764;4.332;2022-07-25T13:19:14;26.00;90.80
25582;DHT22;13462;50.764;4.332;2022-07-25T13:21:40;25.80;91.60
25582;DHT22;13462;50.764;4.332;2022-07-25T13:24:06;25.70;91.10
25582;DHT22;13462;50.764;4.332;2022-07-25T13:26:32;25.70;91.50
25582;DHT22;13462;50.764;4.332;2022-07-25T13:28:58;26.10;91.40
25582;DHT22;13462;50.764;4.332;2022-07-25T13:31:24;26.00;90.90
25582;DHT22;13462;50.764;4.332;2022-07-25T13:33:50;25.90;91.00
25582;DHT22;13462;50.764;4.332;2022-07-25T13:36:16;26.00;90.80
25582;DHT22;13462;50.764;4.332;2022-07-25T13:38:43;26.50;89.80
25582;DHT22;13462;50.764;4.332;2022-07-25T13:41:09;26.30;89.90
25582;DHT22;13462;50.764;4.332;2022-07-25T13:43:35;26.10;90.00
25582;DHT22;13462;50.764;4.332;2022-07-25T13:46:01;26.20;90.10
25582;DHT22;13462;50.764;4.332;2022-07-25T13:48:27;26.00;89.70
25582;DHT22;13462;50.764;4.332;2022-07-25T13:50:54;26.10;90.10
25582;DHT22;13462;50.764;4.332;2022-07-25T13:53:19;25.70;89.30
25582;DHT22;13462;50.764;4.332;2022-07-25T13:55:46;25.80;89.70
25582;DHT22;13462;50.764;4.332;2022-07-25T13:58:12;26.20;87.50
25582;DHT22;13462;50.764;4.332;2022-07-25T14:00:38;26.50;86.50
25582;DHT22;13462;50.764;4.332;2022-07-25T14:03:04;26.70;84.70
25582;DHT22;13462;50.764;4.332;2022-07-25T14:05:29;26.90;86.40
25582;DHT22;13462;50.764;4.332;2022-07-25T14:07:55;27.20;83.10
25582;DHT22;13462;50.764;4.332;2022-07-25T14:10:21;27.30;82.80
25582;DHT22;13462;50.764;4.332;2022-07-25T14:12:46;27.20;83.10
25582;DHT22;13462;50.764;4.332;2022-07-25T14:15:12;27.00;81.70
25582;DHT22;13462;50.764;4.332;2022-07-25T14:17:38;26.80;82.40
25582;DHT22;13462;50.764;4.332;2022-07-25T14:20:05;26.80;83.60
25582;DHT22;13462;50.764;4.332;2022-07-25T14:22:31;26.90;82.80
25582;DHT22;13462;50.764;4.332;2022-07-25T14:24:57;27.00;84.80
25582;DHT22;13462;50.764;4.332;2022-07-25T14:27:23;26.90;83.90
25582;DHT22;13462;50.764;4.332;2022-07-25T14:29:48;26.90;82.30
25582;DHT22;13462;50.764;4.332;2022-07-25T14:32:14;26.90;80.90
25582;DHT22;13462;50.764;4.332;2022-07-25T14:34:39;27.20;81.60
25582;DHT22;13462;50.764;4.332;2022-07-25T14:37:06;27.20;78.40
25582;DHT22;13462;50.764;4.332;2022-07-25T14:39:32;27.20;79.50
25582;DHT22;13462;50.764;4.332;2022-07-25T14:41:58;27.40;78.30
25582;DHT22;13462;50.764;4.332;2022-07-25T14:44:24;27.30;77.20
25582;DHT22;13462;50.764;4.332;2022-07-25T14:46:52;27.30;78.90
25582;DHT22;13462;50.764;4.332;2022-07-25T14:49:17;27.50;77.50
25582;DHT22;13462;50.764;4.332;2022-07-25T14:51:43;27.80;75.30
25582;DHT22;13462;50.764;4.332;2022-07-25T14:54:11;27.60;76.30
25582;DHT22;13462;50.764;4.332;2022-07-25T14:56:38;27.00;77.70
25582;DHT22;13462;50.764;4.332;2022-07-25T14:59:05;27.10;80.40
25582;DHT22;13462;50.764;4.332;2022-07-25T15:01:30;27.30;78.10
25582;DHT22;13462;50.764;4.332;2022-07-25T15:03:56;27.00;78.30
25582;DHT22;13462;50.764;4.332;2022-07-25T15:06:22;26.70;78.10
25582;DHT22;13462;50.764;4.332;2022-07-25T15:08:48;26.60;80.20
25582;DHT22;13462;50.764;4.332;2022-07-25T15:11:16;26.60;79.50
25582;DHT22;13462;50.764;4.332;2022-07-25T15:13:42;26.60;78.90
25582;DHT22;13462;50.764;4.332;2022-07-25T15:16:08;26.80;77.10
25582;DHT22;13462;50.764;4.332;2022-07-25T15:18:33;26.60;77.60
25582;DHT22;13462;50.764;4.332;2022-07-25T15:20:59;26.60;77.70
25582;DHT22;13462;50.764;4.332;2022-07-25T15:23:25;26.70;77.90
25582;DHT22;13462;50.764;4.332;2022-07-25T15:25:51;26.40;78.90
25582;DHT22;13462;50.764;4.332;2022-07-25T15:28:17;26.30;78.70
25582;DHT22;13462;50.764;4.332;2022-07-25T15:30:43;26.60;78.80
25582;DHT22;13462;50.764;4.332;2022-07-25T15:33:08;26.70;78.70
25582;DHT22;13462;50.764;4.332;2022-07-25T15:35:34;27.10;77.50
25582;DHT22;13462;50.764;4.332;2022-07-25T15:38:01;27.30;77.80
25582;DHT22;13462;50.764;4.332;2022-07-25T15:40:26;27.70;75.30
25582;DHT22;13462;50.764;4.332;2022-07-25T15:42:52;27.50;76.30
25582;DHT22;13462;50.764;4.332;2022-07-25T15:45:17;27.40;73.50
25582;DHT22;13462;50.764;4.332;2022-07-25T15:47:46;27.00;73.90
25582;DHT22;13462;50.764;4.332;2022-07-25T15:50:12;26.90;75.00